Time;durP1;ratioP1;P1;durP2;ratioP2;P2;SDS_P1;SDS_P2;PMS_P1;PMS_P2;Temp;Humidity;BMP_temperature;BMP_pressure;BME280_temperature;BME280_humidity;BME280_pressure;Samples;Min_cycle;Max_cycle;Signal;HPM_P1;HPM_P2
2022/12/17 13:07:24;;;;;;;3.73;3.40;;;1.50;98.00;;;;;;4998964;28;20609;-74
2022/12/17 13:09:53;;;;;;;8.77;5.07;;;1.60;98.00;;;;;;5013798;28;20458;-73
2022/12/17 13:12:28;;;;;;;9.23;3.67;;;1.60;98.00;;;;;;5013763;28;20474;-73
2022/12/17 13:15:10;;;;;;;5.43;3.30;;;1.10;98.00;;;;;;5013677;28;20525;-74
2022/12/17 13:17:41;;;;;;;8.27;4.30;;;0.90;98.00;;;;;;5013427;28;20515;-73
2022/12/17 13:20:37;;;;;;;6.63;3.57;;;0.70;98.00;;;;;;5013295;28;20976;-73
2022/12/17 13:23:26;;;;;;;6.43;4.33;;;0.60;98.00;;;;;;5013310;28;21014;-74
2022/12/17 13:26:23;;;;;;;9.73;4.17;;;0.50;98.00;;;;;;4990648;28;20576;-73
2022/12/17 13:29:13;;;;;;;8.80;5.17;;;0.40;98.00;;;;;;4998810;28;20544;-73
2022/12/17 13:31:54;;;;;;;8.63;5.43;;;0.40;98.00;;;;;;5013028;28;20481;-74
2022/12/17 13:34:29;;;;;;;4.70;4.00;;;0.30;98.00;;;;;;5012908;28;20529;-73
2022/12/17 13:37:03;;;;;;;4.97;3.47;;;0.20;98.00;;;;;;5013173;28;20457;-73
2022/12/17 13:39:37;;;;;;;9.10;5.20;;;0.10;98.00;;;;;;5013071;28;20859;-73
2022/12/17 13:42:04;;;;;;;7.80;3.43;;;0.00;98.00;;;;;;4995542;28;20500;-74
2022/12/17 13:44:39;;;;;;;8.57;3.07;;;-0.10;98.00;;;;;;5013088;28;20457;-73
2022/12/17 13:47:18;;;;;;;9.00;4.57;;;-0.10;98.00;;;;;;5013208;28;20514;-73
2022/12/17 13:49:50;;;;;;;5.70;4.13;;;-0.20;98.00;;;;;;5013002;28;20535;-73
2022/12/17 13:52:20;;;;;;;10.53;3.97;;;-0.20;98.00;;;;;;5012740;28;20461;-73
2022/12/17 13:54:49;;;;;;;8.00;4.70;;;0.10;98.00;;;;;;5013332;28;20466;-74
2022/12/17 13:57:18;;;;;;;7.27;3.90;;;0.10;98.00;;;;;;5012830;28;20469;-73
2022/12/17 13:59:51;;;;;;;13.70;3.90;;;0.10;98.00;;;;;;5013745;28;20458;-73
2022/12/17 14:02:26;;;;;;;8.97;3.63;;;0.10;98.00;;;;;;5012111;28;20465;-73
2022/12/17 14:04:54;;;;;;;4.70;3.73;;;0.00;98.00;;;;;;5012872;28;20461;-74
2022/12/17 14:07:24;;;;;;;4.63;4.20;;;0.00;98.00;;;;;;5012878;28;20471;-74
2022/12/17 14:09:51;;;;;;;9.70;4.53;;;0.00;98.00;;;;;;5012796;28;20971;-74
2022/12/17 14:12:21;;;;;;;4.87;4.10;;;0.30;98.00;;;;;;5012521;28;20459;-74
2022/12/17 14:14:51;;;;;;;6.53;4.10;;;0.40;98.00;;;;;;5012614;28;20473;-74
2022/12/17 14:17:20;;;;;;;6.77;4.70;;;0.20;98.00;;;;;;5012507;28;20458;-74
2022/12/17 14:19:50;;;;;;;11.80;4.47;;;0.10;98.00;;;;;;5012632;28;20470;-74
2022/12/17 14:22:23;;;;;;;12.27;4.63;;;0.00;98.00;;;;;;5012568;28;20830;-74
2022/12/17 14:24:52;;;;;;;7.43;3.70;;;0.00;98.00;;;;;;5012497;28;20462;-74
2022/12/17 14:27:25;;;;;;;9.83;4.93;;;-0.10;98.00;;;;;;5012291;28;20487;-73
2022/12/17 14:29:52;;;;;;;4.50;3.60;;;-0.30;98.00;;;;;;5012078;28;20474;-74
2022/12/17 14:32:25;;;;;;;8.70;4.83;;;-0.70;98.00;;;;;;5012233;28;20462;-74
2022/12/17 14:34:52;;;;;;;6.93;4.30;;;-0.90;98.00;;;;;;5012437;28;20485;-74
2022/12/17 14:37:23;;;;;;;6.60;2.73;;;-0.90;98.00;;;;;;5012199;28;20463;-73
2022/12/17 14:39:55;;;;;;;6.07;3.93;;;-1.00;98.00;;;;;;5012279;28;20454;-74
2022/12/17 14:42:29;;;;;;;8.97;4.37;;;-1.20;98.00;;;;;;5011707;28;21044;-74
2022/12/17 14:44:59;;;;;;;5.43;2.70;;;-1.30;98.00;;;;;;5012178;28;20463;-74
2022/12/17 14:47:28;;;;;;;3.80;3.20;;;-1.50;98.00;;;;;;4994291;28;20454;-74
2022/12/17 14:50:04;;;;;;;7.67;3.33;;;-1.70;98.00;;;;;;5011938;28;20493;-73
2022/12/17 14:52:43;;;;;;;3.10;2.80;;;-1.80;98.00;;;;;;5011974;28;20459;-74
2022/12/17 14:55:27;;;;;;;5.43;3.60;;;-1.80;98.00;;;;;;4980078;28;20472;-74
2022/12/17 14:58:15;;;;;;;4.60;3.60;;;-1.90;98.00;;;;;;5011586;28;20474;-74
2022/12/17 15:00:50;;;;;;;7.97;4.63;;;-2.10;98.00;;;;;;5011353;28;20459;-74
2022/12/17 15:03:21;;;;;;;3.03;2.67;;;-2.30;98.00;;;;;;5004860;28;20457;-73
2022/12/17 15:05:52;;;;;;;5.83;4.63;;;-2.40;98.00;;;;;;4994324;28;20484;-75
2022/12/17 15:08:20;;;;;;;6.78;3.70;;;-2.30;98.00;;;;;;5011882;28;20455;-74
2022/12/17 15:10:48;;;;;;;4.45;4.15;;;-2.40;98.00;;;;;;5012172;28;20205;-73
2022/12/17 15:13:15;;;;;;;5.22;3.20;;;-2.40;98.00;;;;;;5012131;28;20198;-73
2022/12/17 15:15:42;;;;;;;3.45;2.53;;;-2.50;98.00;;;;;;5012032;28;20215;-74
2022/12/17 15:18:13;;;;;;;3.00;2.88;;;-2.60;98.00;;;;;;5011923;28;20600;-73
2022/12/17 15:20:41;;;;;;;5.10;4.13;;;-2.60;98.00;;;;;;5012017;28;20222;-73
2022/12/17 15:23:16;;;;;;;2.73;2.53;;;-2.70;98.00;;;;;;5012080;28;20466;-73
2022/12/17 15:25:44;;;;;;;10.90;6.37;;;-2.80;98.00;;;;;;5012026;28;20496;-73
2022/12/17 15:28:13;;;;;;;3.53;3.35;;;-3.00;98.00;;;;;;4994548;28;20467;-74
2022/12/17 15:30:40;;;;;;;2.85;2.45;;;-3.10;98.00;;;;;;5011971;28;20257;-73
2022/12/17 15:33:08;;;;;;;3.60;3.47;;;-3.20;98.00;;;;;;5012024;28;20210;-73
2022/12/17 15:35:36;;;;;;;5.07;3.35;;;-3.30;98.00;;;;;;5012116;28;20564;-73
2022/12/17 15:38:03;;;;;;;10.63;2.45;;;-3.30;98.00;;;;;;5011624;28;20216;-72
2022/12/17 15:40:31;;;;;;;6.50;4.65;;;-3.30;98.00;;;;;;5011959;28;20208;-74
2022/12/17 15:43:12;;;;;;;4.15;3.80;;;-3.20;98.00;;;;;;4993044;28;20202;-73
2022/12/17 15:45:42;;;;;;;6.50;4.18;;;-3.10;98.00;;;;;;4988499;28;20221;-72
2022/12/17 15:48:10;;;;;;;3.35;2.42;;;-3.00;98.00;;;;;;4989093;28;20670;-69
2022/12/17 15:50:38;;;;;;;3.55;3.38;;;-2.80;98.00;;;;;;4987557;28;20700;-72
2022/12/17 15:53:05;;;;;;;9.05;3.13;;;-2.80;98.00;;;;;;4989144;28;20210;-72
2022/12/17 15:55:32;;;;;;;6.75;3.67;;;-2.90;98.00;;;;;;4989231;28;20336;-73
2022/12/17 15:58:01;;;;;;;9.68;4.35;;;-3.00;98.00;;;;;;4989089;28;20209;-73
2022/12/17 16:00:28;;;;;;;5.22;3.92;;;-3.00;98.00;;;;;;4989207;28;20214;-72
2022/12/17 16:02:57;;;;;;;11.03;4.67;;;-3.10;98.00;;;;;;4988944;28;20206;-73
2022/12/17 16:05:24;;;;;;;5.47;3.28;;;-3.30;98.00;;;;;;4989330;28;20751;-74
2022/12/17 16:07:52;;;;;;;7.57;3.95;;;-3.50;98.00;;;;;;4971547;28;20665;-72
2022/12/17 16:10:19;;;;;;;6.50;3.38;;;-3.60;98.00;;;;;;4988853;28;20206;-72
2022/12/17 16:12:46;;;;;;;3.28;2.90;;;-3.70;98.00;;;;;;4983077;28;20573;-72
2022/12/17 16:15:13;;;;;;;3.45;2.50;;;-3.70;98.00;;;;;;4971658;28;20206;-72
2022/12/17 16:17:40;;;;;;;4.90;3.38;;;-3.80;98.00;;;;;;4971633;28;20202;-74
2022/12/17 16:20:10;;;;;;;5.18;3.67;;;-3.90;98.00;;;;;;4972276;28;20211;-73
2022/12/17 16:22:37;;;;;;;4.53;3.90;;;-3.90;98.00;;;;;;4957866;28;20212;-74
2022/12/17 16:25:05;;;;;;;8.73;5.07;;;-3.90;98.00;;;;;;4975238;28;20217;-73
2022/12/17 16:27:32;;;;;;;7.72;4.65;;;-3.90;98.00;;;;;;4974936;28;20237;-77
2022/12/17 16:30:00;;;;;;;4.47;4.18;;;-3.90;98.00;;;;;;4975322;28;20474;-76
2022/12/17 16:32:27;;;;;;;4.75;3.58;;;-4.00;98.00;;;;;;4974959;28;20257;-76
2022/12/17 16:34:54;;;;;;;9.55;3.97;;;-4.10;98.00;;;;;;4975134;28;20219;-76
2022/12/17 16:37:22;;;;;;;6.35;4.28;;;-4.10;98.00;;;;;;4974880;28;20198;-75
2022/12/17 16:39:50;;;;;;;7.05;5.22;;;-4.10;98.00;;;;;;4982450;28;20206;-76
2022/12/17 16:42:18;;;;;;;5.50;3.60;;;-4.10;98.00;;;;;;4977031;28;20229;-75
2022/12/17 16:44:45;;;;;;;5.63;4.53;;;-4.30;98.00;;;;;;4994496;28;20210;-76
2022/12/17 16:47:12;;;;;;;9.70;3.88;;;-4.40;98.00;;;;;;4994671;28;20315;-76
2022/12/17 16:49:40;;;;;;;4.68;3.80;;;-4.50;98.00;;;;;;4995003;28;20202;-76
2022/12/17 16:52:07;;;;;;;4.18;3.67;;;-4.50;98.00;;;;;;4992927;28;20652;-76
2022/12/17 16:54:35;;;;;;;4.88;3.70;;;-4.60;98.00;;;;;;5014566;28;20201;-76
2022/12/17 16:57:02;;;;;;;6.50;5.10;;;-4.60;98.00;;;;;;5013495;28;20211;-75
2022/12/17 16:59:29;;;;;;;8.82;4.28;;;-4.60;98.00;;;;;;5013648;28;20200;-75
2022/12/17 17:01:59;;;;;;;8.30;6.25;;;-4.70;98.00;;;;;;5013591;28;20236;-76
2022/12/17 17:04:26;;;;;;;6.03;2.65;;;-4.70;98.00;;;;;;5013580;28;20259;-76
2022/12/17 17:06:55;;;;;;;9.80;5.03;;;-4.60;98.00;;;;;;5013421;28;20232;-75
2022/12/17 17:09:24;;;;;;;9.98;6.43;;;-4.60;98.00;;;;;;5012714;28;20212;-75
2022/12/17 17:11:55;;;;;;;12.13;6.60;;;-4.50;98.00;;;;;;4999240;28;20198;-76
2022/12/17 17:14:22;;;;;;;3.28;3.10;;;-4.70;98.00;;;;;;5010436;28;20567;-76
2022/12/17 17:16:50;;;;;;;7.90;3.55;;;-4.70;98.00;;;;;;4995847;28;20204;-75
2022/12/17 17:19:17;;;;;;;4.47;3.35;;;-4.60;98.00;;;;;;5013255;28;20205;-75
2022/12/17 17:21:50;;;;;;;4.28;3.38;;;-4.70;98.00;;;;;;5013103;28;20203;-75
2022/12/17 17:24:20;;;;;;;6.85;3.83;;;-4.70;98.00;;;;;;5013352;28;20205;-75
2022/12/17 17:26:48;;;;;;;8.27;4.50;;;-4.70;98.00;;;;;;4996098;28;20322;-75
2022/12/17 17:29:17;;;;;;;10.52;4.65;;;-4.70;98.00;;;;;;5013264;28;20219;-75
2022/12/17 17:31:44;;;;;;;3.42;3.22;;;-4.70;98.00;;;;;;5013040;28;20573;-76
2022/12/17 17:34:13;;;;;;;4.63;3.63;;;-4.70;98.00;;;;;;4995940;28;20193;-75
2022/12/17 17:36:42;;;;;;;18.05;5.22;;;-4.70;98.00;;;;;;5013252;28;20213;-76
2022/12/17 17:39:09;;;;;;;7.53;3.78;;;-5.10;98.00;;;;;;4996291;28;20233;-75
2022/12/17 17:41:37;;;;;;;8.68;4.22;;;-5.00;98.00;;;;;;5013060;28;20572;-75
2022/12/17 17:44:08;;;;;;;4.38;3.63;;;-5.10;98.00;;;;;;5013423;28;20205;-75
2022/12/17 17:46:37;;;;;;;12.40;6.15;;;-5.00;98.00;;;;;;5013055;28;20228;-76
2022/12/17 17:49:07;;;;;;;9.07;3.20;;;-5.00;98.00;;;;;;5012900;28;20212;-75
2022/12/17 17:51:36;;;;;;;10.05;5.15;;;-4.80;98.00;;;;;;5012868;28;20205;-75
2022/12/17 17:54:05;;;;;;;10.98;4.15;;;-5.00;98.00;;;;;;5012996;28;20291;-75
2022/12/17 17:56:33;;;;;;;8.98;5.32;;;-5.00;98.00;;;;;;5012476;28;20216;-75
2022/12/17 17:59:03;;;;;;;4.93;3.60;;;-5.00;98.00;;;;;;5012889;28;20216;-76
2022/12/17 18:01:33;;;;;;;7.25;4.50;;;-4.90;98.00;;;;;;5012862;28;20612;-75
2022/12/17 18:04:03;;;;;;;5.78;4.35;;;-5.00;98.00;;;;;;4995729;28;20561;-75
2022/12/17 18:06:31;;;;;;;8.15;4.20;;;-5.20;98.00;;;;;;5012636;28;20221;-75
2022/12/17 18:09:00;;;;;;;6.00;4.75;;;-5.30;98.00;;;;;;5012542;28;20297;-75
2022/12/17 18:11:30;;;;;;;9.82;4.07;;;-5.40;98.00;;;;;;5012645;28;20295;-76
2022/12/17 18:13:57;;;;;;;4.43;2.72;;;-5.50;98.00;;;;;;5012562;28;20205;-76
2022/12/17 18:16:27;;;;;;;4.28;3.53;;;-5.50;98.00;;;;;;5012603;28;20675;-75
2022/12/17 18:18:56;;;;;;;4.95;3.88;;;-5.50;98.00;;;;;;5012454;28;20584;-76
2022/12/17 18:21:27;;;;;;;11.55;5.15;;;-5.40;98.00;;;;;;5012521;28;20626;-75
2022/12/17 18:23:58;;;;;;;3.00;2.80;;;-5.40;98.00;;;;;;5012645;28;20255;-76
2022/12/17 18:26:25;;;;;;;7.50;3.75;;;-5.50;98.00;;;;;;5012217;28;20251;-76
2022/12/17 18:28:53;;;;;;;8.70;4.20;;;-5.50;98.00;;;;;;5012239;28;20201;-75
2022/12/17 18:31:22;;;;;;;14.10;3.28;;;-5.50;98.00;;;;;;5012327;28;20205;-76
2022/12/17 18:33:54;;;;;;;5.60;4.03;;;-5.70;98.00;;;;;;5012164;28;20270;-75
2022/12/17 18:36:25;;;;;;;16.65;4.82;;;-5.70;98.00;;;;;;5012425;28;20207;-75
2022/12/17 18:38:56;;;;;;;6.55;4.20;;;-5.80;98.00;;;;;;5012498;28;20220;-75
2022/12/17 18:44:08;;;;;;;5.40;4.88;;;-5.60;98.00;;;;;;5011680;28;20266;-75
2022/12/17 18:46:36;;;;;;;11.15;5.80;;;-5.80;98.00;;;;;;5011778;28;20228;-75
2022/12/17 18:49:05;;;;;;;12.73;5.47;;;-5.80;98.00;;;;;;5011951;28;20232;-76
2022/12/17 18:51:34;;;;;;;4.97;4.68;;;-5.80;98.00;;;;;;5011994;28;20217;-75
2022/12/17 18:54:03;;;;;;;14.82;7.32;;;-5.90;98.00;;;;;;5011981;28;20234;-76
2022/12/17 18:56:30;;;;;;;3.92;3.40;;;-5.90;98.00;;;;;;5011758;28;20208;-75
2022/12/17 18:58:57;;;;;;;11.30;6.40;;;-5.90;98.00;;;;;;5011798;28;20212;-75
2022/12/17 19:01:26;;;;;;;14.38;5.40;;;-5.90;98.00;;;;;;5012004;28;20200;-76
2022/12/17 19:03:54;;;;;;;11.43;5.20;;;-5.90;98.00;;;;;;4994246;28;20212;-75
2022/12/17 19:06:22;;;;;;;6.35;4.25;;;-6.00;98.00;;;;;;5011726;28;20204;-76
2022/12/17 19:08:51;;;;;;;5.20;4.53;;;-6.00;98.00;;;;;;5011636;28;20199;-75
2022/12/17 19:11:21;;;;;;;6.38;5.38;;;-6.00;98.00;;;;;;5011679;28;20227;-75
2022/12/17 19:13:49;;;;;;;4.95;3.40;;;-5.90;98.00;;;;;;5011583;28;20833;-75
2022/12/17 19:16:19;;;;;;;8.48;4.47;;;-6.00;98.00;;;;;;5011631;28;20221;-76
2022/12/17 19:18:51;;;;;;;10.15;4.40;;;-6.10;98.00;;;;;;5011491;28;20207;-75
2022/12/17 19:21:18;;;;;;;6.25;4.00;;;-6.20;98.00;;;;;;5011615;28;20709;-75
2022/12/17 19:23:45;;;;;;;20.17;5.65;;;-6.20;98.00;;;;;;5011447;28;20201;-75
2022/12/17 19:26:16;;;;;;;5.55;4.35;;;-6.20;98.00;;;;;;5011567;28;20215;-75
2022/12/17 19:28:44;;;;;;;5.00;3.38;;;-6.20;98.00;;;;;;5011484;28;20238;-75
2022/12/17 19:31:12;;;;;;;9.48;5.22;;;-6.20;98.00;;;;;;5012009;28;20207;-76
2022/12/17 19:33:42;;;;;;;7.85;5.10;;;-6.10;98.00;;;;;;5011650;28;20200;-75
2022/12/17 19:36:13;;;;;;;9.60;4.82;;;-6.30;98.00;;;;;;5011884;28;20546;-75
2022/12/17 19:38:40;;;;;;;9.80;5.95;;;-6.40;98.00;;;;;;5011907;28;20201;-76
2022/12/17 19:41:13;;;;;;;12.57;4.90;;;-6.40;98.00;;;;;;5011668;28;20278;-76
2022/12/17 19:43:43;;;;;;;11.52;4.60;;;-6.30;98.00;;;;;;5011645;28;20666;-76
2022/12/17 19:46:13;;;;;;;13.30;5.82;;;-6.30;98.00;;;;;;5011567;28;20211;-75
2022/12/17 19:48:42;;;;;;;7.35;3.50;;;-6.20;98.00;;;;;;5011305;28;20228;-75
2022/12/17 19:51:13;;;;;;;4.97;3.92;;;-6.30;98.00;;;;;;4998280;28;20465;-75
2022/12/17 19:53:43;;;;;;;6.10;4.63;;;-6.30;98.00;;;;;;4991346;28;20216;-75
2022/12/17 19:56:12;;;;;;;11.45;5.30;;;-6.50;98.00;;;;;;4995399;28;20205;-76
2022/12/17 19:58:40;;;;;;;9.43;3.53;;;-6.50;98.00;;;;;;4995340;28;20204;-75
2022/12/17 20:01:14;;;;;;;5.78;4.13;;;-6.50;98.00;;;;;;4995349;28;20624;-75
2022/12/17 20:03:43;;;;;;;8.20;4.47;;;-6.50;98.00;;;;;;4997640;28;20768;-76
2022/12/17 20:06:12;;;;;;;7.00;5.20;;;-6.50;98.00;;;;;;5000341;28;20268;-76
2022/12/17 20:08:39;;;;;;;3.10;2.70;;;-6.60;98.00;;;;;;4996128;28;20574;-75
2022/12/17 20:13:53;;;;;;;10.60;5.55;;;-6.30;98.00;;;;;;4995850;28;20626;-75
2022/12/17 20:16:24;;;;;;;6.43;4.10;;;-6.30;98.00;;;;;;4997113;28;20666;-76
2022/12/17 20:18:51;;;;;;;15.32;6.78;;;-6.40;98.00;;;;;;4997011;28;20227;-76
2022/12/17 20:21:18;;;;;;;9.05;5.45;;;-6.50;98.00;;;;;;4979815;28;20281;-76
2022/12/17 20:23:46;;;;;;;4.88;3.92;;;-6.50;98.00;;;;;;4995967;28;20208;-76
2022/12/17 20:26:14;;;;;;;9.43;4.57;;;-6.50;98.00;;;;;;4995956;28;20239;-76
2022/12/17 20:28:41;;;;;;;15.98;4.75;;;-6.40;98.00;;;;;;4995482;28;20228;-76
2022/12/17 20:31:08;;;;;;;5.75;4.47;;;-6.50;98.00;;;;;;4995755;28;20259;-76
2022/12/17 20:33:37;;;;;;;6.72;3.97;;;-6.70;98.00;;;;;;4995306;28;20212;-76
2022/12/17 20:36:07;;;;;;;11.55;4.90;;;-6.60;98.00;;;;;;4995375;28;20208;-76
2022/12/17 20:38:37;;;;;;;7.32;4.85;;;-6.50;98.00;;;;;;4995254;28;20752;-75
2022/12/17 20:41:10;;;;;;;7.35;4.55;;;-6.40;98.00;;;;;;4995296;28;20295;-75
2022/12/17 20:43:37;;;;;;;15.10;7.40;;;-6.60;98.00;;;;;;4995194;28;20615;-75
2022/12/17 20:46:04;;;;;;;9.32;6.18;;;-6.70;98.00;;;;;;4995508;28;20216;-76
2022/12/17 20:48:32;;;;;;;5.93;4.05;;;-6.80;98.00;;;;;;4995141;28;20236;-76
2022/12/17 20:51:05;;;;;;;10.57;4.40;;;-6.90;98.00;;;;;;4995214;28;20213;-75
2022/12/17 20:53:34;;;;;;;17.73;6.55;;;-6.90;98.00;;;;;;4995296;28;20696;-75
2022/12/17 20:56:02;;;;;;;8.30;5.68;;;-6.80;98.00;;;;;;4995220;28;20294;-75
2022/12/17 20:58:30;;;;;;;13.65;5.65;;;-6.90;98.00;;;;;;4995246;28;20201;-75
2022/12/17 21:01:08;;;;;;;7.43;5.53;;;-6.80;98.00;;;;;;4995178;28;20205;-76
2022/12/17 21:03:35;;;;;;;5.10;3.80;;;-6.80;98.00;;;;;;4995419;28;20208;-75
2022/12/17 21:06:09;;;;;;;8.73;5.85;;;-6.80;98.00;;;;;;4994478;28;20215;-75
2022/12/17 21:08:38;;;;;;;10.80;6.47;;;-6.80;98.00;;;;;;4994900;28;20287;-76
2022/12/17 21:11:07;;;;;;;11.02;5.88;;;-6.80;98.00;;;;;;4995229;28;20203;-75
2022/12/17 21:13:34;;;;;;;10.48;5.43;;;-6.70;98.00;;;;;;4995067;28;20222;-75
2022/12/17 21:16:03;;;;;;;9.68;6.70;;;-6.90;98.00;;;;;;4995134;28;20204;-76
2022/12/17 21:18:33;;;;;;;12.40;6.97;;;-6.90;98.00;;;;;;4995068;28;20209;-76
2022/12/17 21:21:03;;;;;;;13.20;7.45;;;-6.80;98.00;;;;;;4994948;28;20227;-76
2022/12/17 21:23:32;;;;;;;6.57;6.20;;;-6.70;98.00;;;;;;4994410;28;20208;-75
2022/12/17 21:26:01;;;;;;;18.67;9.25;;;-6.80;98.00;;;;;;4994577;28;20209;-75
2022/12/17 21:28:29;;;;;;;15.93;7.03;;;-6.80;98.00;;;;;;4994532;28;20737;-76
2022/12/17 21:30:59;;;;;;;18.52;7.95;;;-6.70;98.00;;;;;;4994719;28;20227;-76
2022/12/17 21:33:26;;;;;;;9.52;5.38;;;-6.80;98.00;;;;;;4994482;28;20567;-76
2022/12/17 21:35:59;;;;;;;21.63;6.75;;;-7.00;98.00;;;;;;4994882;28;20207;-75
2022/12/17 21:38:26;;;;;;;8.45;5.75;;;-7.20;98.00;;;;;;4976985;28;20291;-76
2022/12/17 21:40:55;;;;;;;10.70;6.65;;;-7.10;98.00;;;;;;4996404;28;20817;-76
2022/12/17 21:43:24;;;;;;;14.05;6.10;;;-7.00;98.00;;;;;;4994210;28;20215;-76
2022/12/17 21:45:57;;;;;;;13.23;6.68;;;-7.00;98.00;;;;;;4994477;28;20204;-75
2022/12/17 21:48:27;;;;;;;8.23;5.13;;;-7.10;98.00;;;;;;4994187;28;20260;-76
2022/12/17 21:50:55;;;;;;;13.07;6.75;;;-7.30;98.00;;;;;;4977227;28;20683;-76
2022/12/17 21:53:23;;;;;;;12.18;5.18;;;-7.30;98.00;;;;;;4994196;28;20259;-76
2022/12/17 21:55:53;;;;;;;11.63;4.35;;;-7.30;98.00;;;;;;4977309;28;20205;-76
2022/12/17 21:58:22;;;;;;;13.18;6.00;;;-7.20;98.00;;;;;;4994071;28;20633;-75
2022/12/17 22:00:49;;;;;;;8.43;5.90;;;-7.30;98.00;;;;;;4994241;28;20215;-75
2022/12/17 22:03:17;;;;;;;10.73;5.25;;;-7.40;98.00;;;;;;4994037;28;20210;-76
2022/12/17 22:05:44;;;;;;;5.72;4.68;;;-7.50;98.00;;;;;;4994206;28;20602;-76
2022/12/17 22:08:12;;;;;;;8.30;4.40;;;-7.50;98.00;;;;;;4994154;28;20290;-76
2022/12/17 22:10:41;;;;;;;7.10;4.65;;;-7.30;98.00;;;;;;4993891;28;20620;-76
2022/12/17 22:15:54;;;;;;;11.35;7.13;;;-7.30;98.00;;;;;;4993700;28;20207;-76
2022/12/17 22:18:22;;;;;;;10.70;5.32;;;-7.30;98.00;;;;;;4992718;28;20218;-76
2022/12/17 22:20:57;;;;;;;7.78;5.57;;;-7.40;98.00;;;;;;4993556;28;20207;-76
2022/12/17 22:23:25;;;;;;;7.15;5.68;;;-7.40;98.00;;;;;;4993746;28;20210;-75
2022/12/17 22:25:52;;;;;;;6.60;3.95;;;-7.30;98.00;;;;;;4994161;28;20214;-76
2022/12/17 22:28:19;;;;;;;10.07;5.88;;;-7.30;98.00;;;;;;4993910;28;20238;-76
2022/12/17 22:36:06;;;;;;;10.48;4.93;;;-7.40;98.00;;;;;;4992004;28;20232;-75
2022/12/17 22:38:33;;;;;;;6.53;4.93;;;-7.50;98.00;;;;;;4993093;28;20203;-76
2022/12/17 22:41:05;;;;;;;7.28;5.30;;;-7.40;98.00;;;;;;4993615;28;20687;-75
2022/12/17 22:43:31;;;;;;;19.65;3.67;;;-7.30;98.00;;;;;;4993265;28;20296;-76
2022/12/17 22:46:01;;;;;;;8.90;5.32;;;-7.30;98.00;;;;;;4993539;28;20688;-75
2022/12/17 22:48:31;;;;;;;16.63;7.22;;;-7.40;98.00;;;;;;4993528;28;20231;-75
2022/12/17 22:50:58;;;;;;;6.53;5.15;;;-7.40;98.00;;;;;;4993841;28;20674;-76
2022/12/17 22:53:27;;;;;;;7.18;3.78;;;-7.60;98.00;;;;;;4993590;28;20208;-75
2022/12/17 22:56:03;;;;;;;5.60;5.20;;;-7.60;98.00;;;;;;4993349;28;20219;-76
2022/12/17 22:58:30;;;;;;;10.25;4.72;;;-7.70;98.00;;;;;;4993281;28;20202;-76
2022/12/17 23:00:59;;;;;;;18.33;7.15;;;-7.70;98.00;;;;;;4993522;28;20574;-75
2022/12/17 23:03:27;;;;;;;13.95;6.65;;;-7.70;98.00;;;;;;4993455;28;20581;-76
2022/12/17 23:06:06;;;;;;;7.88;5.65;;;-7.80;98.00;;;;;;4994068;28;20210;-76
2022/12/17 23:08:35;;;;;;;14.43;7.45;;;-7.70;98.00;;;;;;4993572;28;20242;-76
2022/12/17 23:11:07;;;;;;;5.85;4.57;;;-7.80;98.00;;;;;;4992988;28;20208;-76
2022/12/17 23:13:34;;;;;;;3.58;3.38;;;-8.00;98.00;;;;;;4992730;28;20286;-75
2022/12/17 23:16:02;;;;;;;12.15;8.27;;;-8.00;98.00;;;;;;5007736;28;20205;-75
2022/12/17 23:18:32;;;;;;;9.10;5.05;;;-7.90;98.00;;;;;;4992703;28;20214;-76
2022/12/17 23:21:06;;;;;;;22.15;5.55;;;-7.70;98.00;;;;;;4992730;28;20210;-75
2022/12/17 23:23:35;;;;;;;12.00;5.72;;;-7.60;98.00;;;;;;5007833;28;20215;-76
2022/12/17 23:26:07;;;;;;;4.90;4.57;;;-7.60;98.00;;;;;;4993625;28;20201;-76
2022/12/17 23:28:38;;;;;;;6.20;4.65;;;-7.80;98.00;;;;;;5007773;28;20287;-76
2022/12/17 23:31:07;;;;;;;13.93;4.93;;;-7.90;98.00;;;;;;4997119;28;20217;-75
2022/12/17 23:33:35;;;;;;;8.55;4.97;;;-7.70;98.00;;;;;;5011606;28;20199;-76
2022/12/17 23:36:04;;;;;;;11.23;5.07;;;-7.70;98.00;;;;;;5011977;28;20222;-75
2022/12/17 23:38:34;;;;;;;8.75;3.33;;;-7.90;98.00;;;;;;4997047;28;20289;-76
2022/12/17 23:41:08;;;;;;;11.52;5.22;;;-8.00;98.00;;;;;;4997444;28;20206;-76
2022/12/17 23:43:35;;;;;;;7.78;4.82;;;-8.10;98.00;;;;;;4997479;28;20205;-76
2022/12/17 23:46:02;;;;;;;7.03;4.70;;;-8.10;98.00;;;;;;4997463;28;20244;-76
2022/12/17 23:48:31;;;;;;;7.75;4.80;;;-8.00;98.00;;;;;;4997246;28;20233;-76
2022/12/17 23:50:58;;;;;;;7.13;3.75;;;-8.00;98.00;;;;;;4997417;28;20707;-76
2022/12/17 23:53:26;;;;;;;15.73;6.15;;;-7.90;98.00;;;;;;4997400;28;20579;-76
2022/12/17 23:55:54;;;;;;;17.23;6.22;;;-8.00;98.00;;;;;;5012370;28;20692;-75
2022/12/17 23:58:24;;;;;;;9.00;5.20;;;-8.00;98.00;;;;;;4997112;28;20211;-76
